Time;durP1;ratioP1;P1;durP2;ratioP2;P2;SDS_P1;SDS_P2;PMS_P1;PMS_P2;Temp;Humidity;BMP_temperature;BMP_pressure;BME280_temperature;BME280_humidity;BME280_pressure;Samples;Min_cycle;Max_cycle;Signal;HPM_P1;HPM_P2
2022/05/08 00:00:12;;;;;;;12.10;10.93;;;11.10;99.90;;;;;;4156937;28;20058;-76
2022/05/08 00:02:14;;;;;;;12.18;10.93;;;11.10;99.90;;;;;;4158147;28;20121;-77
2022/05/08 00:04:16;;;;;;;13.95;11.48;;;11.10;99.90;;;;;;4173570;28;20042;-76
2022/05/08 00:06:18;;;;;;;11.68;10.57;;;11.20;99.90;;;;;;4157890;28;20064;-76
2022/05/08 00:08:20;;;;;;;11.82;10.60;;;11.20;99.90;;;;;;4172413;28;20080;-76
2022/05/08 00:10:21;;;;;;;11.82;10.63;;;11.20;99.90;;;;;;4163342;28;20058;-76
2022/05/08 00:12:23;;;;;;;13.00;10.90;;;11.20;99.90;;;;;;4160719;28;20770;-76
2022/05/08 00:14:25;;;;;;;11.93;10.68;;;11.20;99.90;;;;;;4156419;28;20062;-76
2022/05/08 00:16:26;;;;;;;12.02;10.75;;;11.20;99.90;;;;;;4156559;28;20104;-76
2022/05/08 00:18:28;;;;;;;11.25;10.15;;;11.10;99.90;;;;;;4155640;28;20099;-77
2022/05/08 00:20:31;;;;;;;13.52;11.20;;;11.10;99.90;;;;;;4157365;28;20069;-76
2022/05/08 00:22:33;;;;;;;12.00;10.82;;;11.10;99.90;;;;;;4166453;28;20826;-76
2022/05/08 00:24:35;;;;;;;13.27;11.25;;;11.10;99.90;;;;;;4153998;28;20058;-76
2022/05/08 00:26:37;;;;;;;14.70;11.63;;;11.10;99.90;;;;;;4152886;28;20054;-76
2022/05/08 00:28:39;;;;;;;11.40;9.93;;;11.00;99.90;;;;;;4152657;28;20181;-76
2022/05/08 00:30:41;;;;;;;12.07;10.88;;;11.00;99.90;;;;;;4160695;28;20057;-76
2022/05/08 00:32:43;;;;;;;11.38;10.32;;;11.00;99.90;;;;;;4162815;28;20104;-76
2022/05/08 00:34:45;;;;;;;12.75;11.15;;;11.00;99.90;;;;;;4164783;28;20060;-76
2022/05/08 00:36:46;;;;;;;12.43;10.95;;;11.00;99.90;;;;;;4166255;28;20066;-76
2022/05/08 00:38:48;;;;;;;12.57;11.18;;;11.00;99.90;;;;;;4165641;28;20065;-75
2022/05/08 00:40:50;;;;;;;17.08;11.48;;;11.00;99.90;;;;;;4166836;28;20808;-75
2022/05/08 00:42:51;;;;;;;11.32;10.20;;;10.90;99.90;;;;;;4163924;28;20178;-75
2022/05/08 00:44:53;;;;;;;11.82;10.60;;;10.90;99.90;;;;;;4166114;28;20173;-75
2022/05/08 00:46:55;;;;;;;12.20;10.98;;;10.90;99.90;;;;;;4182552;28;20096;-76
2022/05/08 00:48:57;;;;;;;13.55;11.98;;;10.80;99.90;;;;;;4166940;28;20054;-75
2022/05/08 00:51:01;;;;;;;15.88;10.98;;;10.70;99.90;;;;;;4166866;28;20064;-75
2022/05/08 00:53:05;;;;;;;12.82;11.52;;;10.60;99.90;;;;;;4167267;28;20944;-75
2022/05/08 00:55:07;;;;;;;11.30;10.10;;;10.60;99.90;;;;;;4163150;28;20092;-75
2022/05/08 00:57:09;;;;;;;12.45;10.85;;;10.50;99.90;;;;;;4166983;28;20085;-75
2022/05/08 00:59:12;;;;;;;14.88;11.50;;;10.40;99.90;;;;;;4167349;28;20499;-75
2022/05/08 01:01:14;;;;;;;15.10;11.05;;;10.40;99.90;;;;;;4150787;28;20185;-75
2022/05/08 01:03:16;;;;;;;13.60;11.45;;;10.40;99.90;;;;;;4181339;28;20084;-75
2022/05/08 01:05:18;;;;;;;13.55;11.20;;;10.30;99.90;;;;;;4182380;28;20057;-75
2022/05/08 01:07:21;;;;;;;11.50;10.15;;;10.20;99.90;;;;;;4170989;28;20193;-75
2022/05/08 01:09:23;;;;;;;11.43;10.23;;;10.20;99.90;;;;;;4157145;28;20057;-75
2022/05/08 01:11:25;;;;;;;13.48;11.93;;;10.30;99.90;;;;;;4166664;28;20080;-75
2022/05/08 01:13:26;;;;;;;16.02;14.35;;;10.40;99.90;;;;;;4167120;28;20058;-75
2022/05/08 01:15:29;;;;;;;14.80;13.30;;;10.40;99.90;;;;;;4167073;28;20080;-75
2022/05/08 01:17:30;;;;;;;15.55;13.95;;;10.40;99.90;;;;;;4163017;28;20058;-75
2022/05/08 01:19:32;;;;;;;17.58;15.05;;;10.50;99.90;;;;;;4166898;28;20058;-76
2022/05/08 01:21:41;;;;;;;14.10;12.63;;;10.60;99.90;;;;;;4176970;28;20097;-75
2022/05/08 01:23:44;;;;;;;11.65;10.55;;;10.60;99.90;;;;;;4156432;28;20180;-75
2022/05/08 01:25:53;;;;;;;13.32;11.32;;;10.60;99.90;;;;;;4182035;28;20867;-75
2022/05/08 01:27:55;;;;;;;13.35;11.25;;;10.60;99.90;;;;;;4181937;28;20069;-75
2022/05/08 01:29:57;;;;;;;14.25;12.02;;;10.60;99.90;;;;;;4165689;28;20662;-76
2022/05/08 01:31:59;;;;;;;11.85;10.60;;;10.60;99.90;;;;;;4166389;28;20068;-75
2022/05/08 01:34:00;;;;;;;11.88;10.60;;;10.60;99.90;;;;;;4178311;28;20639;-75
2022/05/08 01:36:02;;;;;;;18.92;11.82;;;10.60;99.90;;;;;;4154479;28;20101;-75
2022/05/08 01:38:05;;;;;;;11.75;10.52;;;10.60;99.90;;;;;;4161063;28;20834;-76
2022/05/08 01:40:08;;;;;;;14.88;12.45;;;10.60;99.90;;;;;;4152455;28;20061;-76
2022/05/08 01:42:09;;;;;;;12.85;11.60;;;10.60;99.90;;;;;;4158051;28;20813;-76
2022/05/08 01:44:11;;;;;;;11.70;10.65;;;10.60;99.90;;;;;;4157705;28;20885;-76
2022/05/08 01:46:13;;;;;;;14.40;11.70;;;10.50;99.90;;;;;;4155216;28;20053;-76
2022/05/08 01:48:23;;;;;;;17.50;12.05;;;10.50;99.90;;;;;;4160737;28;20064;-77
2022/05/08 01:50:25;;;;;;;12.88;11.50;;;10.50;99.90;;;;;;4174086;28;20097;-76
2022/05/08 01:52:27;;;;;;;12.32;11.05;;;10.50;99.90;;;;;;4160941;28;20169;-76
2022/05/08 01:54:28;;;;;;;13.65;12.30;;;10.40;99.90;;;;;;4158765;28;20065;-76
2022/05/08 01:56:30;;;;;;;16.10;13.07;;;10.30;99.90;;;;;;4158402;28;20064;-76
2022/05/08 01:58:32;;;;;;;14.35;12.85;;;10.20;99.90;;;;;;4160213;28;20132;-76
2022/05/08 02:00:34;;;;;;;13.27;11.98;;;10.10;99.90;;;;;;4158279;28;20065;-76
2022/05/08 02:02:37;;;;;;;13.77;12.40;;;10.10;99.90;;;;;;4154839;28;20062;-76
2022/05/08 02:04:40;;;;;;;14.18;11.88;;;10.10;99.90;;;;;;4159633;28;20865;-76
2022/05/08 02:06:42;;;;;;;13.88;11.75;;;10.10;99.90;;;;;;4166002;28;20058;-75
2022/05/08 02:08:44;;;;;;;13.27;11.90;;;10.10;99.90;;;;;;4159212;28;20054;-76
2022/05/08 02:10:45;;;;;;;14.55;13.00;;;10.20;99.90;;;;;;4158470;28;20080;-76
2022/05/08 02:12:47;;;;;;;13.70;12.18;;;10.20;99.90;;;;;;4159420;28;20897;-75
2022/05/08 02:14:49;;;;;;;14.35;12.18;;;10.20;99.90;;;;;;4154738;28;21252;-76
2022/05/08 02:16:51;;;;;;;13.35;11.98;;;10.10;99.90;;;;;;4156742;28;20050;-76
2022/05/08 02:18:52;;;;;;;16.02;12.75;;;10.10;99.90;;;;;;4176964;28;20866;-76
2022/05/08 02:20:54;;;;;;;13.73;11.65;;;10.00;99.90;;;;;;4155817;28;20064;-76
2022/05/08 02:22:56;;;;;;;12.32;11.13;;;9.90;99.90;;;;;;4157262;28;20065;-76
2022/05/08 02:24:59;;;;;;;13.52;11.88;;;9.80;99.90;;;;;;4159625;28;20054;-77
2022/05/08 02:27:01;;;;;;;15.20;12.98;;;9.80;99.90;;;;;;4173643;28;20853;-76
2022/05/08 02:29:03;;;;;;;14.85;13.38;;;9.80;99.90;;;;;;4155121;28;20054;-75
2022/05/08 02:31:05;;;;;;;13.48;12.15;;;9.80;99.90;;;;;;4155120;28;20861;-75
2022/05/08 02:33:07;;;;;;;13.18;11.90;;;9.80;99.90;;;;;;4171399;28;20108;-75
2022/05/08 02:35:12;;;;;;;13.43;12.02;;;9.80;99.90;;;;;;4155314;28;20058;-76
2022/05/08 02:37:14;;;;;;;12.70;11.30;;;9.90;99.90;;;;;;4156506;28;20058;-76
2022/05/08 02:39:15;;;;;;;13.20;11.82;;;9.90;99.90;;;;;;4158820;28;20881;-76
2022/05/08 02:41:17;;;;;;;15.73;12.30;;;9.90;99.90;;;;;;4152998;28;20062;-76
2022/05/08 02:43:21;;;;;;;13.80;12.43;;;9.90;99.90;;;;;;4172891;28;20064;-76
2022/05/08 02:45:23;;;;;;;14.25;12.57;;;10.00;99.90;;;;;;4174009;22;20045;-75
2022/05/08 02:47:24;;;;;;;15.68;12.63;;;10.00;99.90;;;;;;4174428;28;20058;-75
2022/05/08 02:49:26;;;;;;;21.55;12.25;;;9.90;99.90;;;;;;4169617;28;20062;-75
2022/05/08 02:51:28;;;;;;;13.05;11.70;;;9.80;99.90;;;;;;4180611;28;20054;-74
2022/05/08 02:53:29;;;;;;;15.25;11.85;;;9.80;99.90;;;;;;4170711;28;20057;-74
2022/05/08 03:00:31;;;;;;;14.48;12.68;;;9.70;99.90;;;;;;4128973;28;20114;-75
2022/05/08 03:02:34;;;;;;;13.82;11.77;;;9.70;99.90;;;;;;4134444;28;20051;-75
2022/05/08 03:04:36;;;;;;;15.32;11.77;;;9.70;99.90;;;;;;4173942;28;20054;-75
2022/05/08 03:06:38;;;;;;;14.32;12.82;;;9.70;99.90;;;;;;4170604;28;20869;-75
2022/05/08 03:08:40;;;;;;;14.68;12.23;;;9.70;99.90;;;;;;4170728;28;20065;-75
2022/05/08 03:13:03;;;;;;;;;;;9.70;99.90;;;;;;4178573;28;20052;-74
2022/05/08 03:15:05;;;;;;;18.00;13.52;;;9.80;99.90;;;;;;4174266;28;19981;-75
2022/05/08 03:17:07;;;;;;;14.45;12.88;;;9.70;99.90;;;;;;4177861;28;20061;-75
2022/05/08 03:19:08;;;;;;;17.60;14.63;;;9.80;99.90;;;;;;4175104;28;20169;-75
2022/05/08 03:21:12;;;;;;;19.02;15.10;;;9.80;99.90;;;;;;4173697;28;20859;-76
2022/05/08 03:23:17;;;;;;;18.67;16.45;;;9.70;99.90;;;;;;4177682;28;20172;-76
2022/05/08 03:25:18;;;;;;;16.63;14.88;;;9.60;99.90;;;;;;4176570;28;20049;-75
2022/05/08 03:27:21;;;;;;;20.65;16.42;;;9.50;99.90;;;;;;4173487;28;20053;-74
2022/05/08 03:29:25;;;;;;;18.23;15.55;;;9.40;99.90;;;;;;4174559;28;20062;-74
2022/05/08 03:31:26;;;;;;;18.23;16.05;;;9.30;99.90;;;;;;4173564;28;20058;-74
2022/05/08 03:33:29;;;;;;;23.83;17.10;;;9.30;99.90;;;;;;4175271;28;20164;-74
2022/05/08 03:35:31;;;;;;;21.25;16.45;;;9.30;99.90;;;;;;4173721;28;21572;-74
2022/05/08 03:37:33;;;;;;;23.27;17.20;;;9.40;99.90;;;;;;4173705;28;20062;-74
2022/05/08 03:39:35;;;;;;;25.33;17.17;;;9.40;99.90;;;;;;4173368;28;20057;-74
2022/05/08 03:41:36;;;;;;;19.15;16.35;;;9.40;99.90;;;;;;4173942;28;20064;-74
2022/05/08 03:43:38;;;;;;;19.30;16.83;;;9.50;99.90;;;;;;4175153;28;20184;-74
2022/05/08 03:45:40;;;;;;;21.88;17.15;;;9.50;99.90;;;;;;4171237;28;20803;-74
2022/05/08 03:47:41;;;;;;;19.92;16.63;;;9.60;99.90;;;;;;4171087;28;20050;-74
2022/05/08 03:49:43;;;;;;;17.70;15.18;;;9.50;99.90;;;;;;4170168;28;20168;-74
2022/05/08 03:51:44;;;;;;;17.17;15.35;;;9.60;99.90;;;;;;4170040;28;20057;-74
2022/05/08 03:53:46;;;;;;;17.45;14.88;;;9.50;99.90;;;;;;4171311;28;20057;-74
2022/05/08 03:55:48;;;;;;;17.45;14.70;;;9.50;99.90;;;;;;4172788;28;20057;-74
2022/05/08 03:57:49;;;;;;;16.05;14.40;;;9.50;99.90;;;;;;4175465;28;20775;-74
2022/05/08 03:59:51;;;;;;;21.52;15.35;;;9.50;99.90;;;;;;4177513;28;20803;-74
2022/05/08 04:01:55;;;;;;;18.80;15.30;;;9.50;99.90;;;;;;4168684;28;20079;-74
2022/05/08 04:03:56;;;;;;;19.25;14.60;;;9.50;99.90;;;;;;4168568;28;20664;-74
2022/05/08 04:05:58;;;;;;;20.02;15.60;;;9.40;99.90;;;;;;4177759;28;20872;-74
2022/05/08 04:08:00;;;;;;;20.80;15.45;;;9.30;99.90;;;;;;4171734;28;20064;-74
2022/05/08 04:10:02;;;;;;;19.42;15.65;;;9.20;99.90;;;;;;4172003;28;20062;-74
2022/05/08 04:12:05;;;;;;;20.27;16.25;;;9.10;99.90;;;;;;4167271;28;21056;-74
2022/05/08 04:14:07;;;;;;;18.83;16.55;;;9.10;99.90;;;;;;4170080;28;20064;-74
2022/05/08 04:16:18;;;;;;;24.05;17.25;;;9.10;99.90;;;;;;4168369;28;20061;-73
2022/05/08 04:18:20;;;;;;;16.90;14.57;;;9.10;99.90;;;;;;4166730;28;20069;-74
2022/05/08 04:20:22;;;;;;;18.42;15.40;;;9.10;99.90;;;;;;4171811;28;20065;-74
2022/05/08 04:24:44;;;;;;;16.90;14.57;;;9.20;99.90;;;;;;4175249;28;20061;-74
2022/05/08 04:26:46;;;;;;;19.52;15.57;;;9.20;99.90;;;;;;4177989;28;20675;-74
2022/05/08 04:28:48;;;;;;;15.98;14.13;;;9.30;99.90;;;;;;4182353;28;20089;-74
2022/05/08 04:30:51;;;;;;;18.13;14.82;;;9.30;99.90;;;;;;4171784;28;20811;-74
2022/05/08 04:32:56;;;;;;;15.85;13.60;;;9.40;99.90;;;;;;4170440;28;20054;-75
2022/05/08 04:34:57;;;;;;;24.40;14.43;;;9.40;99.90;;;;;;4170352;28;20062;-74
2022/05/08 04:36:59;;;;;;;15.40;13.68;;;9.40;99.90;;;;;;4172779;28;20068;-74
2022/05/08 04:39:01;;;;;;;16.85;14.52;;;9.40;99.90;;;;;;4169772;28;20172;-73
2022/05/08 04:41:03;;;;;;;17.73;14.63;;;9.40;99.90;;;;;;4172713;28;20771;-74
2022/05/08 04:43:04;;;;;;;16.67;14.18;;;9.30;99.90;;;;;;4173115;28;20108;-74
2022/05/08 04:45:07;;;;;;;17.05;14.88;;;9.30;99.90;;;;;;4173947;28;20057;-74
2022/05/08 04:47:08;;;;;;;19.33;13.30;;;9.30;99.90;;;;;;4172624;28;20061;-74
2022/05/08 04:49:10;;;;;;;15.93;14.23;;;9.40;99.90;;;;;;4172964;28;20057;-74
2022/05/08 04:51:12;;;;;;;16.85;14.32;;;9.40;99.90;;;;;;4172828;28;20890;-74
2022/05/08 04:53:13;;;;;;;17.30;13.70;;;9.40;99.90;;;;;;4172613;28;20701;-74
2022/05/08 04:55:15;;;;;;;15.40;13.45;;;9.40;99.90;;;;;;4173100;28;20940;-74
2022/05/08 04:57:17;;;;;;;14.68;13.07;;;9.50;99.90;;;;;;4171223;28;20873;-74
2022/05/08 04:59:18;;;;;;;16.65;14.40;;;9.50;99.90;;;;;;4173888;28;20780;-74
2022/05/08 05:01:21;;;;;;;14.30;12.88;;;9.50;99.90;;;;;;4174959;28;20058;-74
2022/05/08 05:03:24;;;;;;;20.27;16.38;;;9.60;99.90;;;;;;4171159;28;20057;-74
2022/05/08 05:05:26;;;;;;;19.02;14.98;;;9.60;99.90;;;;;;4173718;28;20053;-74
2022/05/08 05:07:28;;;;;;;15.63;13.40;;;9.70;99.90;;;;;;4169098;28;20058;-74
2022/05/08 05:09:29;;;;;;;15.32;12.85;;;9.70;99.90;;;;;;4170871;28;20156;-74
2022/05/08 05:11:31;;;;;;;18.27;13.10;;;9.70;99.90;;;;;;4172819;28;20077;-74
2022/05/08 05:13:33;;;;;;;16.48;13.73;;;9.70;99.90;;;;;;4170174;28;20058;-74
2022/05/08 05:15:34;;;;;;;15.40;13.80;;;9.70;99.90;;;;;;4169019;28;20181;-74
2022/05/08 05:17:37;;;;;;;16.25;14.35;;;9.60;99.90;;;;;;4167164;28;20713;-74
2022/05/08 05:19:38;;;;;;;17.23;15.43;;;9.60;99.90;;;;;;4166378;28;20061;-74
2022/05/08 05:21:40;;;;;;;15.25;13.55;;;9.60;99.90;;;;;;4166652;28;20861;-74
2022/05/08 05:23:42;;;;;;;16.27;13.77;;;9.70;99.90;;;;;;4170425;28;20152;-74
2022/05/08 05:25:44;;;;;;;14.32;12.68;;;9.80;99.90;;;;;;4169295;28;20050;-74
2022/05/08 05:27:45;;;;;;;15.65;14.05;;;9.80;99.90;;;;;;4173126;28;20061;-74
2022/05/08 05:29:47;;;;;;;15.95;14.20;;;9.80;99.90;;;;;;4173008;28;20101;-74
2022/05/08 05:31:49;;;;;;;16.70;14.20;;;9.80;99.90;;;;;;4168775;28;20137;-74
2022/05/08 05:33:51;;;;;;;18.15;14.82;;;9.90;99.90;;;;;;4180756;28;20053;-74
2022/05/08 05:35:52;;;;;;;15.70;13.75;;;9.90;99.90;;;;;;4169202;28;20061;-74
2022/05/08 05:37:54;;;;;;;15.95;14.32;;;10.00;99.90;;;;;;4173110;28;20058;-74
2022/05/08 05:39:56;;;;;;;17.13;14.30;;;10.00;99.90;;;;;;4169859;28;20053;-74
2022/05/08 05:41:58;;;;;;;15.70;14.02;;;10.10;99.90;;;;;;4171820;28;20093;-74
2022/05/08 05:44:00;;;;;;;15.70;14.10;;;10.10;99.90;;;;;;4171809;28;20165;-74
2022/05/08 05:48:22;;;;;;;16.50;13.60;;;10.20;99.90;;;;;;4180920;28;20133;-74
2022/05/08 05:50:25;;;;;;;14.45;12.95;;;10.40;99.90;;;;;;4177961;28;20049;-74
2022/05/08 05:52:27;;;;;;;14.38;12.77;;;10.40;99.90;;;;;;4174786;28;20089;-74
2022/05/08 05:54:29;;;;;;;15.15;12.25;;;10.50;99.90;;;;;;4172402;28;20093;-75
2022/05/08 05:56:31;;;;;;;13.93;12.60;;;10.60;99.90;;;;;;4174502;28;20871;-75
2022/05/08 05:58:33;;;;;;;14.80;13.32;;;10.60;99.90;;;;;;4174333;28;20096;-74
2022/05/08 06:00:34;;;;;;;16.58;13.38;;;10.60;99.90;;;;;;4173625;28;20063;-74
2022/05/08 06:02:37;;;;;;;19.77;14.27;;;10.70;99.90;;;;;;4174576;28;20050;-74
2022/05/08 06:04:39;;;;;;;14.60;12.93;;;10.70;99.90;;;;;;4175704;28;20682;-74
2022/05/08 06:06:41;;;;;;;17.98;15.23;;;10.80;99.90;;;;;;4176389;28;20607;-74
2022/05/08 06:08:42;;;;;;;17.90;13.95;;;10.90;99.90;;;;;;4175946;28;20867;-74
2022/05/08 06:10:44;;;;;;;17.15;13.77;;;10.90;99.90;;;;;;4176204;28;20085;-73
2022/05/08 06:12:46;;;;;;;16.45;14.48;;;11.00;99.90;;;;;;4175006;28;20061;-74
2022/05/08 06:14:47;;;;;;;17.98;15.55;;;11.00;99.90;;;;;;4173460;28;20864;-74
2022/05/08 06:16:49;;;;;;;16.17;14.48;;;11.00;99.90;;;;;;4174890;28;20869;-74
2022/05/08 06:18:51;;;;;;;18.27;15.68;;;11.00;99.90;;;;;;4174237;28;20053;-74
2022/05/08 06:20:54;;;;;;;20.05;15.98;;;11.10;99.90;;;;;;4172220;28;20811;-74
2022/05/08 06:22:56;;;;;;;19.67;16.10;;;11.20;99.90;;;;;;4171368;28;20065;-75
2022/05/08 06:24:58;;;;;;;19.95;17.55;;;11.30;99.90;;;;;;4173140;28;20049;-75
2022/05/08 06:27:00;;;;;;;21.50;17.73;;;11.40;99.90;;;;;;4170255;28;20785;-75
2022/05/08 06:29:02;;;;;;;22.83;18.42;;;11.50;99.90;;;;;;4175554;28;20156;-75
2022/05/08 06:31:04;;;;;;;23.35;18.35;;;11.60;99.90;;;;;;4171216;28;20149;-75
2022/05/08 06:33:06;;;;;;;21.45;19.13;;;11.70;99.90;;;;;;4177235;28;20064;-75
2022/05/08 06:35:11;;;;;;;20.90;18.35;;;11.80;99.90;;;;;;4171007;28;20714;-74
2022/05/08 06:37:12;;;;;;;20.20;17.98;;;11.80;99.90;;;;;;4169942;28;20908;-74
2022/05/08 06:39:14;;;;;;;22.65;18.35;;;11.80;99.90;;;;;;4171548;28;20057;-74
2022/05/08 06:41:16;;;;;;;21.88;17.08;;;11.80;99.90;;;;;;4167271;28;20060;-75
2022/05/08 06:43:17;;;;;;;21.17;18.30;;;11.80;99.90;;;;;;4167414;28;20054;-75
2022/05/08 06:45:24;;;;;;;24.77;18.67;;;11.90;99.90;;;;;;4168614;28;20065;-75
2022/05/08 06:47:26;;;;;;;21.48;18.27;;;11.90;99.90;;;;;;4173105;28;20058;-75
2022/05/08 06:49:27;;;;;;;19.70;17.60;;;11.90;99.90;;;;;;4169805;28;20271;-75
2022/05/08 06:51:29;;;;;;;25.15;17.85;;;12.00;99.90;;;;;;4171615;28;20058;-75
2022/05/08 06:53:31;;;;;;;20.60;17.67;;;12.00;99.90;;;;;;4168351;28;20058;-75
2022/05/08 06:55:34;;;;;;;23.60;16.92;;;12.10;99.90;;;;;;4171364;28;20884;-75
2022/05/08 06:57:36;;;;;;;20.02;17.85;;;12.20;99.90;;;;;;4175946;28;20135;-75
2022/05/08 07:01:58;;;;;;;21.95;17.13;;;12.30;99.90;;;;;;4170229;28;20857;-75
2022/05/08 07:04:05;;;;;;;24.98;17.33;;;12.30;99.90;;;;;;4176624;28;20180;-75
2022/05/08 07:06:07;;;;;;;18.50;16.27;;;12.40;99.90;;;;;;4174251;28;20089;-75
2022/05/08 07:08:09;;;;;;;19.38;16.55;;;12.50;99.90;;;;;;4174280;28;20062;-75
2022/05/08 07:10:10;;;;;;;18.33;16.48;;;12.60;99.90;;;;;;4174724;28;20058;-75
2022/05/08 07:12:12;;;;;;;16.98;15.18;;;12.60;99.90;;;;;;4172858;28;20814;-75
2022/05/08 07:14:15;;;;;;;18.48;15.80;;;12.70;99.90;;;;;;4176136;28;20057;-75
2022/05/08 07:16:17;;;;;;;18.17;16.08;;;12.80;99.90;;;;;;4172646;28;20053;-75
2022/05/08 07:18:19;;;;;;;16.75;14.95;;;12.90;99.90;;;;;;4172823;28;20061;-75
2022/05/08 07:20:21;;;;;;;16.40;14.63;;;12.90;99.90;;;;;;4173896;28;20058;-75
2022/05/08 07:22:23;;;;;;;18.95;15.07;;;13.00;99.90;;;;;;4175096;28;20812;-74
2022/05/08 07:24:25;;;;;;;17.70;14.55;;;13.10;99.90;;;;;;4172992;28;20176;-75
2022/05/08 07:26:26;;;;;;;15.38;13.93;;;13.20;99.90;;;;;;4172199;28;20056;-75
2022/05/08 07:28:28;;;;;;;16.70;13.73;;;13.30;99.90;;;;;;4173979;28;20064;-74
2022/05/08 07:30:30;;;;;;;15.93;14.30;;;13.30;99.90;;;;;;4179299;28;20809;-74
2022/05/08 07:32:33;;;;;;;14.90;13.48;;;13.40;99.90;;;;;;4170802;28;20069;-74
2022/05/08 07:36:55;;;;;;;14.05;12.68;;;13.70;99.90;;;;;;4174324;28;20777;-74
2022/05/08 07:38:57;;;;;;;14.63;13.00;;;13.90;99.90;;;;;;4169550;28;20105;-76
2022/05/08 07:41:00;;;;;;;13.55;12.25;;;14.10;99.60;;;;;;4169398;28;20801;-76
2022/05/08 07:43:02;;;;;;;14.98;12.60;;;14.20;98.40;;;;;;4165695;28;20867;-76
2022/05/08 07:45:06;;;;;;;14.55;12.02;;;14.50;97.80;;;;;;4172186;28;20897;-76
2022/05/08 07:47:08;;;;;;;12.45;11.25;;;14.60;97.10;;;;;;4164603;28;20152;-76
2022/05/08 07:49:10;;;;;;;13.68;11.60;;;14.70;96.40;;;;;;4166726;28;20058;-76
2022/05/08 07:51:12;;;;;;;16.58;12.05;;;14.80;95.70;;;;;;4172921;28;20868;-77
2022/05/08 07:53:14;;;;;;;12.20;10.98;;;15.00;95.00;;;;;;4168698;28;20740;-77
2022/05/08 07:55:15;;;;;;;11.18;10.07;;;15.10;94.00;;;;;;4173724;28;20065;-77
2022/05/08 07:57:17;;;;;;;15.82;11.55;;;15.20;93.50;;;;;;4169082;28;20846;-77
2022/05/08 07:59:19;;;;;;;10.05;9.15;;;15.20;93.30;;;;;;4166033;28;21004;-77
2022/05/08 08:01:20;;;;;;;12.07;10.90;;;15.30;92.70;;;;;;4167863;28;20136;-77
2022/05/08 08:03:41;;;;;;;11.30;10.18;;;15.10;92.50;;;;;;4176457;28;20062;-77
2022/05/08 08:05:43;;;;;;;13.75;10.50;;;15.20;92.90;;;;;;4165781;28;20178;-77
2022/05/08 08:08:05;;;;;;;10.88;9.80;;;15.20;92.70;;;;;;4172082;28;20068;-76
2022/05/08 08:10:07;;;;;;;11.38;10.20;;;15.30;92.50;;;;;;4168344;28;20060;-76
2022/05/08 08:12:09;;;;;;;10.30;9.30;;;15.40;91.20;;;;;;4167367;28;20057;-76
2022/05/08 08:14:11;;;;;;;11.00;9.90;;;15.40;91.90;;;;;;4169454;28;20789;-77
2022/05/08 08:16:32;;;;;;;11.15;9.95;;;15.40;92.30;;;;;;4167639;28;20057;-77
2022/05/08 08:18:34;;;;;;;10.35;9.43;;;15.50;91.80;;;;;;4187795;28;20045;-77
2022/05/08 08:20:43;;;;;;;12.90;10.02;;;15.50;91.10;;;;;;4173342;28;20662;-77
2022/05/08 08:22:45;;;;;;;10.65;9.55;;;15.50;91.10;;;;;;4172168;28;20067;-78
2022/05/08 08:24:47;;;;;;;9.68;8.88;;;15.50;91.40;;;;;;4171583;28;20101;-77
2022/05/08 08:26:48;;;;;;;10.02;9.13;;;15.60;91.50;;;;;;4171434;28;20053;-77
2022/05/08 08:28:50;;;;;;;10.30;9.27;;;15.70;91.90;;;;;;4174186;28;20053;-77
2022/05/08 08:30:52;;;;;;;14.60;9.15;;;15.70;90.50;;;;;;4172365;28;20057;-77
2022/05/08 08:32:54;;;;;;;10.25;9.25;;;15.70;90.90;;;;;;4173823;28;20058;-77
2022/05/08 08:34:57;;;;;;;10.68;9.73;;;15.70;91.20;;;;;;4172711;28;20128;-77
2022/05/08 08:36:58;;;;;;;13.82;8.75;;;15.80;90.60;;;;;;4175545;28;20160;-77
2022/05/08 08:39:01;;;;;;;8.63;7.85;;;15.90;90.80;;;;;;4173092;28;20061;-77
2022/05/08 08:41:04;;;;;;;10.18;9.20;;;16.00;90.70;;;;;;4172553;28;20049;-77
2022/05/08 08:43:07;;;;;;;10.07;9.18;;;16.10;90.00;;;;;;4171637;28;20062;-77
2022/05/08 08:47:45;;;;;;;9.73;8.82;;;16.20;90.00;;;;;;4180400;28;20784;-76
2022/05/08 08:49:52;;;;;;;11.50;9.05;;;16.30;88.80;;;;;;4172336;28;20089;-76
2022/05/08 08:51:54;;;;;;;10.70;8.73;;;16.30;88.10;;;;;;4211085;22;20060;-75
2022/05/08 08:53:57;;;;;;;10.75;8.68;;;16.30;89.20;;;;;;4172515;28;20071;-76
2022/05/08 08:56:01;;;;;;;9.80;8.90;;;16.50;88.70;;;;;;4176454;28;20742;-76
2022/05/08 08:58:02;;;;;;;9.75;8.77;;;16.60;86.90;;;;;;4169250;28;20156;-75
2022/05/08 09:00:06;;;;;;;10.60;8.90;;;16.60;86.40;;;;;;4169541;28;20058;-75
2022/05/08 09:02:18;;;;;;;9.23;8.38;;;16.60;85.70;;;;;;4177891;28;20100;-75
2022/05/08 09:04:21;;;;;;;9.27;8.45;;;16.60;85.20;;;;;;4172056;28;20161;-75
2022/05/08 09:06:22;;;;;;;9.93;8.32;;;16.80;85.10;;;;;;4172859;28;20062;-75
2022/05/08 09:08:29;;;;;;;9.02;8.13;;;16.90;84.50;;;;;;4169338;28;20097;-75
2022/05/08 09:10:36;;;;;;;9.15;8.27;;;17.20;83.70;;;;;;4168122;28;20084;-75
2022/05/08 09:12:40;;;;;;;9.73;8.55;;;17.30;83.30;;;;;;4168899;28;20084;-75
2022/05/08 09:14:41;;;;;;;8.88;8.05;;;17.40;82.40;;;;;;4170722;28;20089;-75
2022/05/08 09:16:53;;;;;;;9.73;7.95;;;17.50;80.80;;;;;;4174962;28;20080;-75
2022/05/08 09:18:55;;;;;;;8.93;8.05;;;17.60;80.60;;;;;;4176076;28;20090;-75
2022/05/08 09:21:54;;;;;;;9.25;8.45;;;17.70;80.40;;;;;;4177123;28;20096;-76
2022/05/08 09:23:22;;;;;;;8.02;7.22;;;17.70;80.30;;;;;;4169047;28;20197;-72
2022/05/08 09:25:24;;;;;;;7.80;7.00;;;17.80;78.60;;;;;;4172039;28;20059;-75
2022/05/08 09:27:25;;;;;;;7.93;7.30;;;17.90;79.70;;;;;;4179147;28;20054;-76
2022/05/08 09:29:27;;;;;;;7.10;6.40;;;18.00;78.80;;;;;;4172850;28;20089;-76
2022/05/08 09:31:48;;;;;;;9.15;7.53;;;18.00;78.70;;;;;;4180404;28;20053;-75
2022/05/08 09:33:51;;;;;;;8.18;7.38;;;18.00;77.80;;;;;;4176093;28;20796;-75
2022/05/08 09:35:54;;;;;;;8.30;7.47;;;18.00;78.60;;;;;;4174095;28;20131;-76
2022/05/08 09:38:00;;;;;;;7.75;7.05;;;18.00;78.00;;;;;;4177593;28;20627;-74
2022/05/08 09:40:15;;;;;;;7.70;7.10;;;17.90;77.60;;;;;;4176224;28;20646;-73
2022/05/08 09:42:36;;;;;;;10.77;7.07;;;17.90;78.00;;;;;;4174079;28;20056;-74
2022/05/08 09:45:07;;;;;;;8.60;6.97;;;18.10;77.80;;;;;;4181306;28;20172;-74
2022/05/08 09:47:08;;;;;;;8.93;6.88;;;18.00;76.10;;;;;;4175079;28;20057;-74
2022/05/08 09:49:18;;;;;;;7.43;6.53;;;18.00;77.00;;;;;;4175027;28;20888;-73
2022/05/08 09:51:21;;;;;;;7.70;7.00;;;18.10;75.90;;;;;;4176008;28;20057;-74
2022/05/08 09:53:24;;;;;;;6.88;6.30;;;18.20;75.60;;;;;;4179480;28;20060;-76
2022/05/08 09:55:26;;;;;;;7.47;6.78;;;18.10;75.60;;;;;;4174829;28;20068;-74
2022/05/08 09:57:28;;;;;;;9.82;7.18;;;18.10;75.90;;;;;;4175760;28;20053;-73
2022/05/08 09:59:30;;;;;;;9.20;8.30;;;18.00;75.00;;;;;;4175693;28;20800;-75
2022/05/08 10:01:33;;;;;;;7.28;6.65;;;17.90;76.20;;;;;;4172489;28;20983;-74
2022/05/08 10:03:35;;;;;;;8.07;7.47;;;17.80;75.90;;;;;;4175851;28;20718;-74
2022/05/08 10:05:38;;;;;;;7.70;6.93;;;17.90;75.20;;;;;;4174358;28;20053;-74
2022/05/08 10:07:41;;;;;;;11.63;7.10;;;18.10;75.40;;;;;;4174082;28;20797;-74
2022/05/08 10:14:27;;;;;;;11.88;7.47;;;18.20;73.10;;;;;;4170136;28;20849;-74
2022/05/08 10:16:46;;;;;;;5.85;5.35;;;18.30;74.80;;;;;;4172541;28;20054;-75
2022/05/08 10:18:48;;;;;;;8.88;6.20;;;18.30;73.60;;;;;;4176007;28;20060;-75
2022/05/08 10:21:07;;;;;;;7.53;5.90;;;18.40;72.30;;;;;;4175345;28;20171;-74
2022/05/08 10:23:35;;;;;;;6.05;5.43;;;18.60;70.10;;;;;;4173947;28;20062;-75
2022/05/08 10:25:37;;;;;;;8.75;5.97;;;18.60;69.20;;;;;;4179395;28;20148;-74
2022/05/08 10:27:38;;;;;;;4.97;4.57;;;18.50;68.90;;;;;;4167577;28;20093;-74
2022/05/08 10:30:03;;;;;;;6.88;4.60;;;18.70;68.60;;;;;;4171815;28;20232;-74
2022/05/08 10:32:06;;;;;;;6.03;5.55;;;18.80;67.80;;;;;;4178452;28;20069;-74
2022/05/08 10:34:09;;;;;;;8.63;5.97;;;18.80;68.50;;;;;;4173817;28;20053;-74
2022/05/08 10:36:11;;;;;;;6.13;5.53;;;18.80;68.90;;;;;;4172606;28;20068;-76
2022/05/08 10:38:16;;;;;;;6.90;5.68;;;18.60;70.30;;;;;;4170703;28;20100;-75
2022/05/08 10:40:23;;;;;;;9.07;6.20;;;18.80;70.30;;;;;;4178875;28;20062;-75
2022/05/08 10:42:28;;;;;;;6.38;5.88;;;18.90;69.60;;;;;;4171524;28;20061;-75
2022/05/08 10:44:40;;;;;;;7.00;6.50;;;18.80;69.20;;;;;;4171610;28;20233;-74
2022/05/08 10:46:42;;;;;;;5.25;4.75;;;18.90;68.80;;;;;;4170461;28;20061;-74
2022/05/08 10:48:44;;;;;;;6.45;5.40;;;19.10;69.70;;;;;;4172325;28;20088;-75
2022/05/08 10:50:53;;;;;;;5.65;5.18;;;19.30;68.90;;;;;;4172530;28;20058;-74
2022/05/08 10:52:57;;;;;;;10.80;6.55;;;19.50;67.60;;;;;;4179505;28;20054;-74